岡山グライダークラブ活動状況掲示板あなたは無料カウンター人目の訪問者です

岡山グライダークラブ
岡山市浦安南町639-1 岡南飛行場
 使用機:シャイベ式 SF25C型 ファルケ   JA2330
      ヴァレンティン式17E型 タイフーン  JA2342
 練習日:毎日曜日  クラブルーム:電話 086-265-1810
この掲示板は岡山グライダークラブの活動状況をお知らせする掲示板です。
!!!この掲示板は投稿規制をしています。!!!
クラブ関連各種情報は 岡山グライダークラブクラブルーム      を       .
  ブリーフイング情報は  岡山グライダークラブブリーフィングルーム  をご覧下さい。 .
※写真はクリックすると拡大して見ることが出来ます。
岡南飛行場へのアクセス等は 岡南飛行場管理事務所 をご覧ください。
クラブの ホームページ ができました。

 
11月25日
by OGC at 2018/11/25(日) 22:34:45 No.20181125223304  削除コメント
640 x 480 x 130,670バイト
No.1

11月25日
本日の参加者
  会員      13名
  その他      0名


@本日の様子




METAR
RJBK 250100Z VRB01KT 25KM FEW035CU 08/04 Q1024 A3025
RKOB 250100Z 10003KT 030V140 9999 FEW015 10/06 Q1023
RJOT 250100Z 09003KT 9999 FEW020 13/02 Q1023
RJOA 250100Z VRB03KT 9999 FEW020 11/06 Q1023
TAF
RJOB 242309Z 2500/2606 21006KT 9999 FEW025 SCT045
     BECMG 2521/2600 11004KT
RJOT 242310Z 2500/2606 27012KT 9999 FEW025
     BECMG 2509/2511 15006KT
RJOA 242306Z 2500/2606 23005KT 9999 FEW020 SCT030
     BECMG 2600/2603 14004KT

本日の天候は風も穏やかで訓練生にとって絶好の訓練日和になりました。
ファルケはいつも通りの訓練の他、与島まで野外訓練に出かけていました。
一方、タイフーンは久しぶりに岡山空港へ行ってきました。



解散    17:00

1番機  11:35離陸 撤収機  16:45着陸 

SF25C JA2330 ファルケ     07Flt.3h10min  
17E   JA2342 タイフーン    02Flt.0h30min  
合計                    09Flt.3h40min

    << 戻る || ホームページ || 最新の掲示板へ